Awatea — ZGCA6 — position and weather

sailwx.info

Track history (hours):
 
Tides and Currents Weather Stations Pressure Air Temp Water Temp Dewpoint Dewpoint Depression Visibility Wind Speed Wind Dir Waves Ship Positions

Awatea

Last reported at 2018-Sep-17 09:16 UTC. Time now 2018-Sep-19 11:12 UTC.
Position N 41°22' E 002°11'.

Length 45 m; draft 2.8 m.

MMSI: 319011900.

Date/timePositionNaut miles runAvg speedWind from/ knotsBaromVisibWave heightAir tempDewpointWater temp
2018-Sep-17 09:16N 41°22' E 002°11'0 0.0
2018-Sep-16 14:13N 41°22' E 002°11'0 0.0
2018-Sep-16 05:55N 41°22' E 002°11'2 5.9
2018-Sep-16 05:30N 41°20' E 002°11'0 0.6
2018-Sep-16 05:01N 41°20' E 002°11'0 0.0
2018-Sep-16 04:58N 41°20' E 002°11'0 0.0
2018-Sep-16 04:28N 41°20' E 002°11'0 0.0
2018-Sep-16 04:01N 41°20' E 002°11'0 0.1
2018-Sep-16 03:58N 41°20' E 002°11'1 1.7
2018-Sep-16 03:30N 41°20' E 002°12'612.6
2018-Sep-16 03:03N 41°18' E 002°19'112.4
2018-Sep-16 03:00N 41°17' E 002°20'51911.7
2018-Sep-14 06:39N 38°30' E 012°60'311.7
2018-Sep-14 06:23N 38°30' E 013°04'411.6
2018-Sep-14 06:01N 38°30' E 013°09'111.2
2018-Sep-14 05:58N 38°30' E 013°10'511.5
2018-Sep-14 05:30N 38°29' E 013°17'511.8
2018-Sep-14 05:03N 38°29' E 013°24'112.4
2018-Sep-14 05:00N 38°29' E 013°24'611.9
2018-Sep-14 04:30N 38°28' E 013°32'511.9
2018-Sep-14 04:03N 38°27' E 013°39'6012.0
2018-Sep-13 23:06N 38°21' E 014°54'212.3
2018-Sep-13 22:56N 38°21' E 014°57'612.5
2018-Sep-13 22:28N 38°21' E 015°04'612.3
2018-Sep-13 22:00N 38°21' E 015°11'611.7
2018-Sep-13 21:30N 38°21' E 015°19'511.5
2018-Sep-13 21:03N 38°20' E 015°26'111.4
2018-Sep-13 21:00N 38°20' E 015°26'611.1
2018-Sep-13 20:30N 38°20' E 015°33'610.6
2018-Sep-13 19:58N 38°18' E 015°40'4 7.6
2018-Sep-13 19:30N 38°15' E 015°38'612.5
2018-Sep-13 19:03N 38°09' E 015°37'112.2
2018-Sep-13 19:00N 38°09' E 015°37'612.2
2018-Sep-13 18:29N 38°02' E 015°37'511.6
2018-Sep-13 18:02N 37°57' E 015°39'111.9
2018-Sep-13 17:58N 37°57' E 015°39'612.0
2018-Sep-13 17:29N 37°54' E 015°46'32710.8
2018-Sep-12 11:16N 38°05' E 022°41'312.1
2018-Sep-12 11:02N 38°03' E 022°44'012.1
2018-Sep-12 11:00N 38°03' E 022°44'611.6
2018-Sep-12 10:31N 38°00' E 022°51'511.3
2018-Sep-12 10:03N 37°58' E 022°56'110.5
2018-Sep-12 10:00N 37°58' E 022°57'4 7.9
2018-Sep-12 09:30N 37°55' E 023°01'2 5.2
2018-Sep-12 09:03N 37°54' E 023°03'111.5
2018-Sep-12 09:00N 37°53' E 023°04'611.6
2018-Sep-12 08:31N 37°52' E 023°11'511.4
2018-Sep-12 08:04N 37°52' E 023°17'111.5
2018-Sep-12 08:00N 37°52' E 023°18'611.7
2018-Sep-12 07:30N 37°51' E 023°25'511.5
2018-Sep-12 07:03N 37°50' E 023°32'111.5
2018-Sep-12 07:01N 37°50' E 023°33'510.4
2018-Sep-12 06:30N 37°50' E 023°39'511.6
2018-Sep-12 06:03N 37°45' E 023°43'111.5
2018-Sep-12 06:01N 37°45' E 023°43'2411.3
2018-Sep-12 03:53N 37°33' E 024°09'411.1
2018-Sep-12 03:28N 37°31' E 024°15'  
Track history (hours):
 
Tides and Currents Weather Stations Pressure Air Temp Water Temp Dewpoint Dewpoint Depression Visibility Wind Speed Wind Dir Waves Ship Positions

Awatea

Last reported at 2018-Sep-17 09:16 UTC. Time now 2018-Sep-19 11:12 UTC.
Position N 41°22' E 002°11'.

Length 45 m; draft 2.8 m.

MMSI: 319011900.

Date/timePositionNaut miles runAvg speedWind from/ knotsBaromVisibWave heightAir tempDewpointWater temp
2018-Sep-17 09:16N 41°22' E 002°11'0 0.0
2018-Sep-16 14:13N 41°22' E 002°11'0 0.0
2018-Sep-16 05:55N 41°22' E 002°11'2 5.9
2018-Sep-16 05:30N 41°20' E 002°11'0 0.6
2018-Sep-16 05:01N 41°20' E 002°11'0 0.0
2018-Sep-16 04:58N 41°20' E 002°11'0 0.0
2018-Sep-16 04:28N 41°20' E 002°11'0 0.0
2018-Sep-16 04:01N 41°20' E 002°11'0 0.1
2018-Sep-16 03:58N 41°20' E 002°11'1 1.7
2018-Sep-16 03:30N 41°20' E 002°12'612.6
2018-Sep-16 03:03N 41°18' E 002°19'112.4
2018-Sep-16 03:00N 41°17' E 002°20'51911.7
2018-Sep-14 06:39N 38°30' E 012°60'311.7
2018-Sep-14 06:23N 38°30' E 013°04'411.6
2018-Sep-14 06:01N 38°30' E 013°09'111.2
2018-Sep-14 05:58N 38°30' E 013°10'511.5
2018-Sep-14 05:30N 38°29' E 013°17'511.8
2018-Sep-14 05:03N 38°29' E 013°24'112.4
2018-Sep-14 05:00N 38°29' E 013°24'611.9
2018-Sep-14 04:30N 38°28' E 013°32'511.9
2018-Sep-14 04:03N 38°27' E 013°39'6012.0
2018-Sep-13 23:06N 38°21' E 014°54'212.3
2018-Sep-13 22:56N 38°21' E 014°57'612.5
2018-Sep-13 22:28N 38°21' E 015°04'612.3
2018-Sep-13 22:00N 38°21' E 015°11'611.7
2018-Sep-13 21:30N 38°21' E 015°19'511.5
2018-Sep-13 21:03N 38°20' E 015°26'111.4
2018-Sep-13 21:00N 38°20' E 015°26'611.1
2018-Sep-13 20:30N 38°20' E 015°33'610.6
2018-Sep-13 19:58N 38°18' E 015°40'4 7.6
2018-Sep-13 19:30N 38°15' E 015°38'612.5
2018-Sep-13 19:03N 38°09' E 015°37'112.2
2018-Sep-13 19:00N 38°09' E 015°37'612.2
2018-Sep-13 18:29N 38°02' E 015°37'511.6
2018-Sep-13 18:02N 37°57' E 015°39'111.9
2018-Sep-13 17:58N 37°57' E 015°39'612.0
2018-Sep-13 17:29N 37°54' E 015°46'32710.8
2018-Sep-12 11:16N 38°05' E 022°41'312.1
2018-Sep-12 11:02N 38°03' E 022°44'012.1
2018-Sep-12 11:00N 38°03' E 022°44'611.6
2018-Sep-12 10:31N 38°00' E 022°51'511.3
2018-Sep-12 10:03N 37°58' E 022°56'110.5
2018-Sep-12 10:00N 37°58' E 022°57'4 7.9
2018-Sep-12 09:30N 37°55' E 023°01'2 5.2
2018-Sep-12 09:03N 37°54' E 023°03'111.5
2018-Sep-12 09:00N 37°53' E 023°04'611.6
2018-Sep-12 08:31N 37°52' E 023°11'511.4
2018-Sep-12 08:04N 37°52' E 023°17'111.5
2018-Sep-12 08:00N 37°52' E 023°18'611.7
2018-Sep-12 07:30N 37°51' E 023°25'511.5
2018-Sep-12 07:03N 37°50' E 023°32'111.5
2018-Sep-12 07:01N 37°50' E 023°33'510.4
2018-Sep-12 06:30N 37°50' E 023°39'511.6
2018-Sep-12 06:03N 37°45' E 023°43'111.5
2018-Sep-12 06:01N 37°45' E 023°43'2411.3
2018-Sep-12 03:53N 37°33' E 024°09'411.1
2018-Sep-12 03:28N 37°31' E 024°15'  

Dump ship's entire track history